Terminal Aerodrome Forecast
Issued by NWS

Home | Current Version | Previous Version | Text Only | Print | Product List | Glossary On
Versions: 1 2 3 4 5 6 7 8 9 10 11 12 13 14
000
FTAK31 PAJN 202300
TAFAWG
TAF
PAWG 202322Z 2100/2124 09008KT P6SM -RA SCT025 OVC035
     FM210300 10006KT P6SM -SHRA BKN020 OVC050
     FM211400 10006KT P6SM VCSH BKN020 OVC050
      AMD LTD TO CLD VIS AND WIND 2106/2115=

USA.gov is the U.S. government's official web portal to all federal, state and local government web resources and services.